sensor_id;sensor_type;location;lat;lon;timestamp;P1;durP1;ratioP1;P2;durP2;ratioP2
15297;SDS011;7750;48.796;9.026;2023-10-19T00:03:49;6.60;;;5.57;;
15297;SDS011;7750;48.796;9.026;2023-10-19T00:08:50;7.10;;;5.53;;
15297;SDS011;7750;48.796;9.026;2023-10-19T00:13:52;6.60;;;5.20;;
15297;SDS011;7750;48.796;9.026;2023-10-19T00:18:54;6.60;;;5.20;;
15297;SDS011;7750;48.796;9.026;2023-10-19T00:23:59;6.40;;;4.70;;
15297;SDS011;7750;48.796;9.026;2023-10-19T00:29:04;7.50;;;5.40;;
15297;SDS011;7750;48.796;9.026;2023-10-19T00:34:25;5.67;;;4.30;;
15297;SDS011;7750;48.796;9.026;2023-10-19T00:39:28;6.50;;;4.17;;
15297;SDS011;7750;48.796;9.026;2023-10-19T00:44:40;4.73;;;3.63;;
15297;SDS011;7750;48.796;9.026;2023-10-19T00:49:49;7.87;;;3.70;;
15297;SDS011;7750;48.796;9.026;2023-10-19T00:54:50;5.60;;;3.80;;
15297;SDS011;7750;48.796;9.026;2023-10-19T00:59:53;5.37;;;3.67;;
15297;SDS011;7750;48.796;9.026;2023-10-19T01:04:56;7.60;;;4.03;;
15297;SDS011;7750;48.796;9.026;2023-10-19T01:10:01;6.33;;;3.90;;
15297;SDS011;7750;48.796;9.026;2023-10-19T01:15:12;5.90;;;3.83;;
15297;SDS011;7750;48.796;9.026;2023-10-19T01:20:17;5.40;;;4.27;;
15297;SDS011;7750;48.796;9.026;2023-10-19T01:25:32;6.23;;;3.73;;
15297;SDS011;7750;48.796;9.026;2023-10-19T01:30:47;5.40;;;3.70;;
15297;SDS011;7750;48.796;9.026;2023-10-19T01:35:51;4.00;;;3.50;;
15297;SDS011;7750;48.796;9.026;2023-10-19T01:41:10;6.00;;;3.43;;
15297;SDS011;7750;48.796;9.026;2023-10-19T01:46:14;6.90;;;4.13;;
15297;SDS011;7750;48.796;9.026;2023-10-19T01:51:25;5.00;;;3.97;;
15297;SDS011;7750;48.796;9.026;2023-10-19T01:56:28;5.50;;;3.73;;
15297;SDS011;7750;48.796;9.026;2023-10-19T02:01:29;4.80;;;3.80;;
15297;SDS011;7750;48.796;9.026;2023-10-19T02:06:32;6.70;;;4.30;;
15297;SDS011;7750;48.796;9.026;2023-10-19T02:11:34;4.77;;;3.80;;
15297;SDS011;7750;48.796;9.026;2023-10-19T02:16:45;6.57;;;3.70;;
15297;SDS011;7750;48.796;9.026;2023-10-19T02:21:47;5.23;;;3.90;;
15297;SDS011;7750;48.796;9.026;2023-10-19T02:26:51;7.53;;;4.13;;
15297;SDS011;7750;48.796;9.026;2023-10-19T02:31:53;6.07;;;4.77;;
15297;SDS011;7750;48.796;9.026;2023-10-19T02:36:55;6.63;;;4.30;;
15297;SDS011;7750;48.796;9.026;2023-10-19T02:41:56;5.10;;;3.90;;
15297;SDS011;7750;48.796;9.026;2023-10-19T02:47:01;5.40;;;4.20;;
15297;SDS011;7750;48.796;9.026;2023-10-19T02:52:08;4.60;;;3.70;;
15297;SDS011;7750;48.796;9.026;2023-10-19T02:57:12;6.57;;;4.27;;
15297;SDS011;7750;48.796;9.026;2023-10-19T03:02:13;5.00;;;3.60;;
15297;SDS011;7750;48.796;9.026;2023-10-19T03:07:14;4.17;;;3.50;;
15297;SDS011;7750;48.796;9.026;2023-10-19T03:12:15;5.33;;;3.73;;
15297;SDS011;7750;48.796;9.026;2023-10-19T03:17:17;5.13;;;3.97;;
15297;SDS011;7750;48.796;9.026;2023-10-19T03:22:18;6.73;;;4.03;;
15297;SDS011;7750;48.796;9.026;2023-10-19T03:27:19;5.33;;;3.67;;
15297;SDS011;7750;48.796;9.026;2023-10-19T03:32:23;4.67;;;3.73;;
15297;SDS011;7750;48.796;9.026;2023-10-19T03:37:28;5.10;;;3.90;;
15297;SDS011;7750;48.796;9.026;2023-10-19T03:42:35;10.27;;;5.10;;
15297;SDS011;7750;48.796;9.026;2023-10-19T03:47:40;7.07;;;4.17;;
15297;SDS011;7750;48.796;9.026;2023-10-19T03:52:44;4.73;;;3.80;;
15297;SDS011;7750;48.796;9.026;2023-10-19T03:57:45;4.60;;;3.77;;
15297;SDS011;7750;48.796;9.026;2023-10-19T04:02:55;3.67;;;3.10;;
15297;SDS011;7750;48.796;9.026;2023-10-19T04:07:58;5.23;;;4.10;;
15297;SDS011;7750;48.796;9.026;2023-10-19T04:12:59;8.57;;;4.83;;
15297;SDS011;7750;48.796;9.026;2023-10-19T04:18:01;5.53;;;4.70;;
15297;SDS011;7750;48.796;9.026;2023-10-19T04:23:02;17.50;;;6.40;;
15297;SDS011;7750;48.796;9.026;2023-10-19T04:28:10;5.90;;;4.23;;
15297;SDS011;7750;48.796;9.026;2023-10-19T04:33:11;7.73;;;4.73;;
15297;SDS011;7750;48.796;9.026;2023-10-19T04:38:11;5.87;;;4.47;;
15297;SDS011;7750;48.796;9.026;2023-10-19T04:43:12;6.03;;;3.60;;
15297;SDS011;7750;48.796;9.026;2023-10-19T04:48:12;5.60;;;3.60;;
15297;SDS011;7750;48.796;9.026;2023-10-19T04:53:13;5.00;;;3.83;;
15297;SDS011;7750;48.796;9.026;2023-10-19T04:58:14;6.63;;;4.03;;
15297;SDS011;7750;48.796;9.026;2023-10-19T05:03:15;7.47;;;4.60;;
15297;SDS011;7750;48.796;9.026;2023-10-19T05:08:18;7.70;;;4.73;;
15297;SDS011;7750;48.796;9.026;2023-10-19T05:13:19;5.83;;;4.33;;
15297;SDS011;7750;48.796;9.026;2023-10-19T05:18:21;3.87;;;3.47;;
15297;SDS011;7750;48.796;9.026;2023-10-19T05:23:23;5.10;;;3.63;;
15297;SDS011;7750;48.796;9.026;2023-10-19T05:28:24;4.90;;;3.77;;
15297;SDS011;7750;48.796;9.026;2023-10-19T05:33:25;7.80;;;3.70;;
15297;SDS011;7750;48.796;9.026;2023-10-19T05:38:27;6.17;;;3.23;;
15297;SDS011;7750;48.796;9.026;2023-10-19T05:43:28;9.53;;;3.93;;
15297;SDS011;7750;48.796;9.026;2023-10-19T05:48:29;5.47;;;4.30;;
15297;SDS011;7750;48.796;9.026;2023-10-19T05:53:29;5.63;;;3.90;;
15297;SDS011;7750;48.796;9.026;2023-10-19T05:58:32;5.70;;;3.93;;
15297;SDS011;7750;48.796;9.026;2023-10-19T06:03:33;7.33;;;4.30;;
15297;SDS011;7750;48.796;9.026;2023-10-19T06:08:34;7.00;;;4.60;;
15297;SDS011;7750;48.796;9.026;2023-10-19T06:13:34;7.67;;;4.73;;
15297;SDS011;7750;48.796;9.026;2023-10-19T06:18:35;7.40;;;4.57;;
15297;SDS011;7750;48.796;9.026;2023-10-19T06:23:36;9.93;;;5.03;;
15297;SDS011;7750;48.796;9.026;2023-10-19T06:28:37;5.40;;;4.10;;
15297;SDS011;7750;48.796;9.026;2023-10-19T06:33:39;5.00;;;3.80;;
15297;SDS011;7750;48.796;9.026;2023-10-19T06:38:41;6.57;;;4.30;;
15297;SDS011;7750;48.796;9.026;2023-10-19T06:43:42;9.23;;;3.47;;
15297;SDS011;7750;48.796;9.026;2023-10-19T06:48:42;3.90;;;3.33;;
15297;SDS011;7750;48.796;9.026;2023-10-19T06:53:43;6.70;;;3.80;;
15297;SDS011;7750;48.796;9.026;2023-10-19T06:58:44;4.17;;;3.10;;
15297;SDS011;7750;48.796;9.026;2023-10-19T07:03:45;4.90;;;3.70;;
15297;SDS011;7750;48.796;9.026;2023-10-19T07:08:45;5.93;;;4.80;;
15297;SDS011;7750;48.796;9.026;2023-10-19T07:13:47;3.87;;;3.50;;
15297;SDS011;7750;48.796;9.026;2023-10-19T07:18:48;5.10;;;3.73;;
15297;SDS011;7750;48.796;9.026;2023-10-19T07:23:50;4.60;;;3.30;;
15297;SDS011;7750;48.796;9.026;2023-10-19T07:28:52;4.10;;;3.00;;
15297;SDS011;7750;48.796;9.026;2023-10-19T07:33:53;5.07;;;3.77;;
15297;SDS011;7750;48.796;9.026;2023-10-19T07:38:57;3.60;;;3.10;;
15297;SDS011;7750;48.796;9.026;2023-10-19T07:43:57;4.17;;;2.97;;
15297;SDS011;7750;48.796;9.026;2023-10-19T07:48:58;5.27;;;3.60;;
15297;SDS011;7750;48.796;9.026;2023-10-19T07:54:00;3.50;;;3.00;;
15297;SDS011;7750;48.796;9.026;2023-10-19T07:59:01;5.87;;;4.00;;
15297;SDS011;7750;48.796;9.026;2023-10-19T08:04:02;4.90;;;3.37;;
15297;SDS011;7750;48.796;9.026;2023-10-19T08:09:02;6.80;;;3.73;;
15297;SDS011;7750;48.796;9.026;2023-10-19T08:14:05;5.60;;;3.40;;
15297;SDS011;7750;48.796;9.026;2023-10-19T08:19:05;6.00;;;4.03;;
15297;SDS011;7750;48.796;9.026;2023-10-19T08:24:07;5.73;;;3.27;;
15297;SDS011;7750;48.796;9.026;2023-10-19T08:29:13;5.03;;;3.67;;
15297;SDS011;7750;48.796;9.026;2023-10-19T08:34:14;4.47;;;3.40;;
15297;SDS011;7750;48.796;9.026;2023-10-19T08:39:15;6.00;;;3.53;;
15297;SDS011;7750;48.796;9.026;2023-10-19T08:44:18;6.97;;;3.70;;
15297;SDS011;7750;48.796;9.026;2023-10-19T08:49:20;5.20;;;2.58;;
15297;SDS011;7750;48.796;9.026;2023-10-19T08:54:25;3.57;;;3.10;;
15297;SDS011;7750;48.796;9.026;2023-10-19T08:59:50;6.60;;;3.27;;
15297;SDS011;7750;48.796;9.026;2023-10-19T09:04:51;4.57;;;2.80;;
15297;SDS011;7750;48.796;9.026;2023-10-19T09:09:51;4.10;;;2.90;;
15297;SDS011;7750;48.796;9.026;2023-10-19T09:14:58;5.00;;;3.20;;
15297;SDS011;7750;48.796;9.026;2023-10-19T10:02:10;6.93;;;3.07;;
15297;SDS011;7750;48.796;9.026;2023-10-19T10:07:35;4.50;;;2.83;;
15297;SDS011;7750;48.796;9.026;2023-10-19T10:12:37;4.03;;;2.57;;
15297;SDS011;7750;48.796;9.026;2023-10-19T10:28:32;4.00;;;2.87;;
15297;SDS011;7750;48.796;9.026;2023-10-19T10:38:40;3.80;;;2.57;;
15297;SDS011;7750;48.796;9.026;2023-10-19T10:43:51;5.60;;;2.90;;
15297;SDS011;7750;48.796;9.026;2023-10-19T10:48:53;5.80;;;2.70;;
15297;SDS011;7750;48.796;9.026;2023-10-19T10:53:54;3.47;;;2.53;;
15297;SDS011;7750;48.796;9.026;2023-10-19T10:58:55;5.87;;;3.00;;
15297;SDS011;7750;48.796;9.026;2023-10-19T11:09:09;5.63;;;3.33;;
15297;SDS011;7750;48.796;9.026;2023-10-19T11:14:11;6.37;;;3.07;;
15297;SDS011;7750;48.796;9.026;2023-10-19T11:24:24;3.13;;;2.67;;
15297;SDS011;7750;48.796;9.026;2023-10-19T11:29:26;4.10;;;2.70;;
15297;SDS011;7750;48.796;9.026;2023-10-19T11:34:27;4.83;;;2.60;;
15297;SDS011;7750;48.796;9.026;2023-10-19T11:39:29;3.80;;;2.83;;
15297;SDS011;7750;48.796;9.026;2023-10-19T11:44:31;3.47;;;2.20;;
15297;SDS011;7750;48.796;9.026;2023-10-19T11:49:32;4.90;;;2.60;;
15297;SDS011;7750;48.796;9.026;2023-10-19T11:54:33;5.50;;;2.73;;
15297;SDS011;7750;48.796;9.026;2023-10-19T11:59:34;4.17;;;3.17;;
15297;SDS011;7750;48.796;9.026;2023-10-19T12:04:35;3.23;;;2.60;;
15297;SDS011;7750;48.796;9.026;2023-10-19T12:09:36;8.00;;;3.80;;
15297;SDS011;7750;48.796;9.026;2023-10-19T12:14:37;5.17;;;3.00;;
15297;SDS011;7750;48.796;9.026;2023-10-19T12:19:41;4.00;;;2.10;;
15297;SDS011;7750;48.796;9.026;2023-10-19T12:24:45;2.93;;;2.17;;
15297;SDS011;7750;48.796;9.026;2023-10-19T12:29:45;2.90;;;1.90;;
15297;SDS011;7750;48.796;9.026;2023-10-19T12:34:46;2.60;;;1.93;;
15297;SDS011;7750;48.796;9.026;2023-10-19T12:39:50;3.27;;;2.50;;
15297;SDS011;7750;48.796;9.026;2023-10-19T12:44:51;2.40;;;1.60;;
15297;SDS011;7750;48.796;9.026;2023-10-19T12:49:52;4.80;;;2.03;;
15297;SDS011;7750;48.796;9.026;2023-10-19T12:54:53;5.37;;;2.90;;
15297;SDS011;7750;48.796;9.026;2023-10-19T12:59:59;4.83;;;2.50;;
15297;SDS011;7750;48.796;9.026;2023-10-19T13:05:22;4.10;;;2.40;;
15297;SDS011;7750;48.796;9.026;2023-10-19T13:10:23;6.47;;;2.30;;
15297;SDS011;7750;48.796;9.026;2023-10-19T13:15:27;3.23;;;2.10;;
15297;SDS011;7750;48.796;9.026;2023-10-19T13:20:31;2.07;;;1.60;;
15297;SDS011;7750;48.796;9.026;2023-10-19T13:25:36;3.30;;;1.73;;
15297;SDS011;7750;48.796;9.026;2023-10-19T13:30:53;3.30;;;1.93;;
15297;SDS011;7750;48.796;9.026;2023-10-19T13:35:54;3.40;;;2.03;;
15297;SDS011;7750;48.796;9.026;2023-10-19T13:40:55;2.93;;;1.90;;
15297;SDS011;7750;48.796;9.026;2023-10-19T13:45:55;3.67;;;2.17;;
15297;SDS011;7750;48.796;9.026;2023-10-19T13:50:56;3.13;;;1.70;;
15297;SDS011;7750;48.796;9.026;2023-10-19T13:56:15;4.53;;;1.90;;
15297;SDS011;7750;48.796;9.026;2023-10-19T14:01:16;3.20;;;1.97;;
15297;SDS011;7750;48.796;9.026;2023-10-19T14:06:17;3.10;;;2.03;;
15297;SDS011;7750;48.796;9.026;2023-10-19T14:11:18;3.80;;;2.57;;
15297;SDS011;7750;48.796;9.026;2023-10-19T14:16:18;2.60;;;2.20;;
15297;SDS011;7750;48.796;9.026;2023-10-19T14:21:19;3.70;;;2.37;;
15297;SDS011;7750;48.796;9.026;2023-10-19T14:26:20;2.80;;;1.73;;
15297;SDS011;7750;48.796;9.026;2023-10-19T14:31:21;5.37;;;2.10;;
15297;SDS011;7750;48.796;9.026;2023-10-19T14:36:22;3.87;;;2.00;;
15297;SDS011;7750;48.796;9.026;2023-10-19T14:41:22;3.00;;;2.20;;
15297;SDS011;7750;48.796;9.026;2023-10-19T14:46:23;2.80;;;1.77;;
15297;SDS011;7750;48.796;9.026;2023-10-19T14:51:26;4.60;;;1.90;;
15297;SDS011;7750;48.796;9.026;2023-10-19T14:56:27;2.83;;;1.97;;
15297;SDS011;7750;48.796;9.026;2023-10-19T15:01:28;7.53;;;2.10;;
15297;SDS011;7750;48.796;9.026;2023-10-19T15:06:29;2.70;;;2.00;;
15297;SDS011;7750;48.796;9.026;2023-10-19T15:11:31;2.23;;;1.63;;
15297;SDS011;7750;48.796;9.026;2023-10-19T15:16:32;2.33;;;1.77;;
15297;SDS011;7750;48.796;9.026;2023-10-19T15:21:32;4.60;;;2.20;;
15297;SDS011;7750;48.796;9.026;2023-10-19T15:26:33;3.20;;;2.30;;
15297;SDS011;7750;48.796;9.026;2023-10-19T15:31:33;4.20;;;2.37;;
15297;SDS011;7750;48.796;9.026;2023-10-19T15:36:34;3.23;;;2.03;;
15297;SDS011;7750;48.796;9.026;2023-10-19T15:41:34;10.67;;;3.53;;
15297;SDS011;7750;48.796;9.026;2023-10-19T15:46:35;6.70;;;3.60;;
15297;SDS011;7750;48.796;9.026;2023-10-19T15:51:39;5.73;;;4.30;;
15297;SDS011;7750;48.796;9.026;2023-10-19T15:56:40;4.43;;;4.00;;
15297;SDS011;7750;48.796;9.026;2023-10-19T16:01:40;5.13;;;3.70;;
15297;SDS011;7750;48.796;9.026;2023-10-19T16:06:41;5.40;;;4.10;;
15297;SDS011;7750;48.796;9.026;2023-10-19T16:11:42;6.37;;;4.50;;
15297;SDS011;7750;48.796;9.026;2023-10-19T16:16:43;5.17;;;3.67;;
15297;SDS011;7750;48.796;9.026;2023-10-19T16:21:46;5.17;;;3.20;;
15297;SDS011;7750;48.796;9.026;2023-10-19T16:26:47;7.87;;;3.73;;
15297;SDS011;7750;48.796;9.026;2023-10-19T16:31:48;5.00;;;3.00;;
15297;SDS011;7750;48.796;9.026;2023-10-19T16:36:48;5.47;;;3.10;;
15297;SDS011;7750;48.796;9.026;2023-10-19T16:41:49;5.10;;;2.90;;
15297;SDS011;7750;48.796;9.026;2023-10-19T16:46:50;3.43;;;2.40;;
15297;SDS011;7750;48.796;9.026;2023-10-19T16:51:51;3.73;;;2.80;;
15297;SDS011;7750;48.796;9.026;2023-10-19T17:02:47;4.63;;;2.50;;
15297;SDS011;7750;48.796;9.026;2023-10-19T17:07:48;5.37;;;2.50;;
15297;SDS011;7750;48.796;9.026;2023-10-19T17:12:48;3.70;;;2.10;;
15297;SDS011;7750;48.796;9.026;2023-10-19T17:17:49;4.07;;;2.20;;
15297;SDS011;7750;48.796;9.026;2023-10-19T17:22:49;2.97;;;1.90;;
15297;SDS011;7750;48.796;9.026;2023-10-19T17:27:50;3.00;;;1.80;;
15297;SDS011;7750;48.796;9.026;2023-10-19T17:32:51;4.80;;;2.43;;
15297;SDS011;7750;48.796;9.026;2023-10-19T17:37:52;3.27;;;2.80;;
15297;SDS011;7750;48.796;9.026;2023-10-19T17:42:53;3.80;;;2.57;;
15297;SDS011;7750;48.796;9.026;2023-10-19T17:47:53;5.23;;;2.43;;
15297;SDS011;7750;48.796;9.026;2023-10-19T17:52:54;6.63;;;3.80;;
15297;SDS011;7750;48.796;9.026;2023-10-19T17:57:54;4.90;;;3.80;;
15297;SDS011;7750;48.796;9.026;2023-10-19T18:02:55;10.20;;;3.90;;
15297;SDS011;7750;48.796;9.026;2023-10-19T18:07:56;5.87;;;3.80;;
15297;SDS011;7750;48.796;9.026;2023-10-19T18:12:57;4.47;;;4.00;;
15297;SDS011;7750;48.796;9.026;2023-10-19T18:17:57;18.10;;;11.27;;
15297;SDS011;7750;48.796;9.026;2023-10-19T18:23:00;6.80;;;4.20;;
15297;SDS011;7750;48.796;9.026;2023-10-19T18:28:01;4.83;;;2.93;;
15297;SDS011;7750;48.796;9.026;2023-10-19T18:33:03;4.03;;;2.77;;
15297;SDS011;7750;48.796;9.026;2023-10-19T18:38:05;5.40;;;3.80;;
15297;SDS011;7750;48.796;9.026;2023-10-19T18:43:05;5.07;;;3.87;;
15297;SDS011;7750;48.796;9.026;2023-10-19T18:48:06;4.73;;;2.60;;
15297;SDS011;7750;48.796;9.026;2023-10-19T18:53:07;3.03;;;2.73;;
15297;SDS011;7750;48.796;9.026;2023-10-19T18:58:07;3.10;;;2.50;;
15297;SDS011;7750;48.796;9.026;2023-10-19T19:03:08;5.50;;;3.10;;
15297;SDS011;7750;48.796;9.026;2023-10-19T19:08:09;10.60;;;3.10;;
15297;SDS011;7750;48.796;9.026;2023-10-19T19:13:09;5.90;;;3.30;;
15297;SDS011;7750;48.796;9.026;2023-10-19T19:18:10;5.00;;;3.40;;
15297;SDS011;7750;48.796;9.026;2023-10-19T19:23:11;6.27;;;4.53;;
15297;SDS011;7750;48.796;9.026;2023-10-19T19:28:12;5.70;;;4.60;;
15297;SDS011;7750;48.796;9.026;2023-10-19T19:33:13;6.00;;;5.40;;
15297;SDS011;7750;48.796;9.026;2023-10-19T19:38:16;10.17;;;7.77;;
15297;SDS011;7750;48.796;9.026;2023-10-19T19:43:19;12.10;;;8.27;;
15297;SDS011;7750;48.796;9.026;2023-10-19T19:48:19;9.70;;;6.37;;
15297;SDS011;7750;48.796;9.026;2023-10-19T19:53:23;8.70;;;5.67;;
15297;SDS011;7750;48.796;9.026;2023-10-19T19:58:24;7.67;;;6.03;;
15297;SDS011;7750;48.796;9.026;2023-10-19T20:03:25;7.53;;;5.20;;
15297;SDS011;7750;48.796;9.026;2023-10-19T20:08:26;10.07;;;8.07;;
15297;SDS011;7750;48.796;9.026;2023-10-19T20:13:26;7.87;;;6.33;;
15297;SDS011;7750;48.796;9.026;2023-10-19T20:18:27;9.00;;;6.03;;
15297;SDS011;7750;48.796;9.026;2023-10-19T20:23:28;7.50;;;5.63;;
15297;SDS011;7750;48.796;9.026;2023-10-19T20:28:28;6.20;;;4.67;;
15297;SDS011;7750;48.796;9.026;2023-10-19T20:33:29;7.23;;;5.77;;
15297;SDS011;7750;48.796;9.026;2023-10-19T20:38:29;7.03;;;5.00;;
15297;SDS011;7750;48.796;9.026;2023-10-19T20:43:30;5.10;;;4.00;;
15297;SDS011;7750;48.796;9.026;2023-10-19T20:48:31;5.90;;;4.73;;
15297;SDS011;7750;48.796;9.026;2023-10-19T20:53:32;6.33;;;5.07;;
15297;SDS011;7750;48.796;9.026;2023-10-19T20:58:33;5.57;;;4.40;;
15297;SDS011;7750;48.796;9.026;2023-10-19T21:03:37;7.83;;;6.23;;
15297;SDS011;7750;48.796;9.026;2023-10-19T21:08:38;8.57;;;5.70;;
15297;SDS011;7750;48.796;9.026;2023-10-19T21:13:39;7.37;;;5.53;;
15297;SDS011;7750;48.796;9.026;2023-10-19T21:18:40;8.40;;;6.50;;
15297;SDS011;7750;48.796;9.026;2023-10-19T21:23:41;8.00;;;6.27;;
15297;SDS011;7750;48.796;9.026;2023-10-19T21:28:41;6.87;;;5.90;;
15297;SDS011;7750;48.796;9.026;2023-10-19T21:38:45;9.73;;;6.33;;
15297;SDS011;7750;48.796;9.026;2023-10-19T21:43:46;7.83;;;5.60;;
15297;SDS011;7750;48.796;9.026;2023-10-19T21:48:46;7.90;;;6.20;;
15297;SDS011;7750;48.796;9.026;2023-10-19T21:53:48;10.10;;;6.73;;
15297;SDS011;7750;48.796;9.026;2023-10-19T21:58:49;7.73;;;5.53;;
15297;SDS011;7750;48.796;9.026;2023-10-19T22:03:50;6.90;;;5.70;;
15297;SDS011;7750;48.796;9.026;2023-10-19T22:08:51;5.73;;;4.70;;
15297;SDS011;7750;48.796;9.026;2023-10-19T22:13:52;6.43;;;5.30;;
15297;SDS011;7750;48.796;9.026;2023-10-19T22:18:52;6.27;;;5.10;;
15297;SDS011;7750;48.796;9.026;2023-10-19T22:23:53;6.33;;;5.60;;
15297;SDS011;7750;48.796;9.026;2023-10-19T22:28:53;6.57;;;5.40;;
15297;SDS011;7750;48.796;9.026;2023-10-19T22:33:54;7.07;;;5.40;;
15297;SDS011;7750;48.796;9.026;2023-10-19T22:38:55;7.83;;;6.03;;
15297;SDS011;7750;48.796;9.026;2023-10-19T22:43:56;7.07;;;5.50;;
15297;SDS011;7750;48.796;9.026;2023-10-19T22:48:57;6.97;;;6.03;;
15297;SDS011;7750;48.796;9.026;2023-10-19T22:53:59;8.80;;;6.10;;
15297;SDS011;7750;48.796;9.026;2023-10-19T22:59:01;6.97;;;5.93;;
15297;SDS011;7750;48.796;9.026;2023-10-19T23:04:03;7.80;;;6.40;;
15297;SDS011;7750;48.796;9.026;2023-10-19T23:09:06;6.60;;;5.53;;
15297;SDS011;7750;48.796;9.026;2023-10-19T23:14:30;8.80;;;7.00;;
15297;SDS011;7750;48.796;9.026;2023-10-19T23:19:31;10.00;;;7.23;;
15297;SDS011;7750;48.796;9.026;2023-10-19T23:24:37;6.70;;;6.00;;
15297;SDS011;7750;48.796;9.026;2023-10-19T23:29:38;8.43;;;6.40;;
15297;SDS011;7750;48.796;9.026;2023-10-19T23:34:46;8.40;;;6.93;;
15297;SDS011;7750;48.796;9.026;2023-10-19T23:39:49;9.57;;;7.73;;
15297;SDS011;7750;48.796;9.026;2023-10-19T23:44:50;9.23;;;7.73;;
15297;SDS011;7750;48.796;9.026;2023-10-19T23:49:51;8.73;;;7.40;;
15297;SDS011;7750;48.796;9.026;2023-10-19T23:54:51;10.53;;;7.63;;
15297;SDS011;7750;48.796;9.026;2023-10-19T23:59:53;11.00;;;8.33;;
